Time;durP1;ratioP1;P1;durP2;ratioP2;P2;SDS_P1;SDS_P2;PMS_P1;PMS_P2;Temp;Humidity;BMP_temperature;BMP_pressure;BME280_temperature;BME280_humidity;BME280_pressure;Samples;Min_cycle;Max_cycle;Signal;HPM_P1;HPM_P2
2023/06/11 00:01:14;;;;;;;83.45;58.97;;;23.30;61.70;;;;;;4955720;28;89993;-73
2023/06/11 00:03:46;;;;;;;83.72;59.28;;;23.30;61.80;;;;;;4958464;28;90286;-74
2023/06/11 00:06:17;;;;;;;84.13;58.85;;;23.30;61.80;;;;;;4957709;28;89192;-72
2023/06/11 00:08:53;;;;;;;84.78;59.53;;;23.30;62.10;;;;;;4953896;28;89716;-74
2023/06/11 00:11:20;;;;;;;85.15;58.80;;;23.30;62.00;;;;;;4942774;28;90188;-72
2023/06/11 00:13:46;;;;;;;84.05;59.03;;;23.20;62.20;;;;;;4954764;28;90797;-73
2023/06/11 00:16:12;;;;;;;85.50;59.28;;;23.20;61.90;;;;;;4957540;28;89770;-72
2023/06/11 00:18:41;;;;;;;84.45;59.00;;;23.20;62.00;;;;;;4949442;28;90292;-72
2023/06/11 00:21:12;;;;;;;82.72;59.25;;;23.20;61.70;;;;;;4957115;28;90423;-72
2023/06/11 00:23:37;;;;;;;83.03;58.95;;;23.20;62.00;;;;;;4945217;28;89321;-72
2023/06/11 00:26:05;;;;;;;83.07;59.00;;;23.20;62.10;;;;;;4960434;28;92543;-72
2023/06/11 00:28:31;;;;;;;84.47;58.65;;;23.10;62.30;;;;;;4950815;28;89656;-72
2023/06/11 00:30:57;;;;;;;82.82;58.60;;;23.10;62.80;;;;;;4938715;28;90806;-72
2023/06/11 00:33:22;;;;;;;84.38;59.08;;;23.10;62.80;;;;;;4939243;28;89876;-73
2023/06/11 00:35:48;;;;;;;83.20;59.17;;;23.10;63.00;;;;;;4957060;28;89955;-73
2023/06/11 00:38:15;;;;;;;83.90;58.92;;;23.10;63.40;;;;;;4958679;28;91337;-72
2023/06/11 00:40:41;;;;;;;83.57;58.58;;;23.10;63.30;;;;;;4955849;28;90188;-73
2023/06/11 00:43:07;;;;;;;82.85;58.55;;;23.00;63.10;;;;;;4958507;28;89491;-71
2023/06/11 00:45:35;;;;;;;82.30;58.55;;;23.00;63.30;;;;;;4958099;28;89968;-71
2023/06/11 00:48:01;;;;;;;82.53;58.70;;;23.00;63.30;;;;;;4959118;28;90491;-70
2023/06/11 00:50:28;;;;;;;85.30;58.95;;;23.00;63.20;;;;;;4957323;28;89765;-72
2023/06/11 00:52:54;;;;;;;85.88;59.20;;;23.00;63.30;;;;;;4954623;28;89598;-73
2023/06/11 00:55:21;;;;;;;84.05;58.80;;;23.00;63.30;;;;;;4958796;28;89036;-71
2023/06/11 00:57:48;;;;;;;85.18;59.38;;;23.00;63.50;;;;;;4939929;28;91839;-73
2023/06/11 01:00:14;;;;;;;83.90;59.10;;;23.00;63.50;;;;;;4955894;28;89545;-71
2023/06/11 01:02:59;;;;;;;83.70;59.15;;;23.00;63.60;;;;;;4940647;28;92208;-73
2023/06/11 01:05:26;;;;;;;81.45;58.47;;;23.00;63.60;;;;;;4939354;28;89854;-73
2023/06/11 01:07:55;;;;;;;85.15;58.95;;;23.00;63.60;;;;;;4959974;28;90020;-71
2023/06/11 01:10:21;;;;;;;83.22;59.00;;;22.90;63.70;;;;;;4956193;28;90039;-72
2023/06/11 01:12:48;;;;;;;82.68;58.13;;;22.90;63.80;;;;;;4953978;28;90300;-73
2023/06/11 01:15:14;;;;;;;82.30;59.03;;;22.90;63.80;;;;;;4962249;28;90104;-72
2023/06/11 01:17:54;;;;;;;82.93;58.95;;;22.90;63.40;;;;;;4958477;28;89408;-74
2023/06/11 01:20:35;;;;;;;83.60;58.88;;;22.90;64.30;;;;;;4953375;28;89232;-72
2023/06/11 01:23:15;;;;;;;82.68;59.08;;;22.80;63.80;;;;;;4953141;28;90966;-71
2023/06/11 01:26:12;;;;;;;84.22;58.67;;;22.90;63.80;;;;;;4936593;28;89686;-72
2023/06/11 01:28:39;;;;;;;82.25;58.83;;;22.80;64.10;;;;;;4952168;28;91450;-72
2023/06/11 01:31:13;;;;;;;83.13;58.70;;;22.80;63.90;;;;;;4952881;28;89846;-72
2023/06/11 01:33:40;;;;;;;83.70;58.65;;;22.80;63.10;;;;;;4942304;28;91569;-72
2023/06/11 01:36:05;;;;;;;82.50;58.33;;;22.70;64.30;;;;;;4936450;28;89780;-73
2023/06/11 01:38:34;;;;;;;83.63;58.55;;;22.70;64.20;;;;;;4955203;28;89701;-71
2023/06/11 01:41:01;;;;;;;82.20;58.42;;;22.70;64.20;;;;;;4940147;28;89680;-72
2023/06/11 01:43:28;;;;;;;81.90;58.95;;;22.70;64.50;;;;;;4953208;28;90217;-71
2023/06/11 01:45:55;;;;;;;82.05;58.63;;;22.70;64.90;;;;;;4956901;28;88981;-72
2023/06/11 01:48:21;;;;;;;82.57;58.83;;;22.60;65.00;;;;;;4931366;28;89612;-73
2023/06/11 01:50:47;;;;;;;82.30;57.72;;;22.60;65.90;;;;;;4949133;28;89714;-73
2023/06/11 01:53:13;;;;;;;82.78;58.75;;;22.60;65.30;;;;;;4956983;28;91004;-72
2023/06/11 01:55:40;;;;;;;82.07;58.03;;;22.60;65.40;;;;;;4951693;28;90202;-73
2023/06/11 01:58:05;;;;;;;82.80;58.35;;;22.60;65.90;;;;;;4928563;28;92868;-73
2023/06/11 02:00:31;;;;;;;81.50;58.40;;;22.60;66.20;;;;;;4953223;28;89585;-73
2023/06/11 02:02:59;;;;;;;81.45;58.42;;;22.60;65.40;;;;;;4955086;28;90506;-70
2023/06/11 02:05:24;;;;;;;81.72;59.15;;;22.50;66.00;;;;;;4955846;28;89705;-73
2023/06/11 02:07:50;;;;;;;81.57;58.83;;;22.50;66.50;;;;;;4952244;28;90018;-72
2023/06/11 02:10:16;;;;;;;83.78;58.83;;;22.50;66.00;;;;;;4926545;28;89919;-73
2023/06/11 02:12:41;;;;;;;82.63;58.30;;;22.40;66.30;;;;;;4956344;28;89605;-72
2023/06/11 02:15:07;;;;;;;82.43;57.78;;;22.50;66.00;;;;;;4926429;28;90610;-71
2023/06/11 02:17:33;;;;;;;82.57;58.33;;;22.40;66.20;;;;;;4955096;28;90739;-70
2023/06/11 02:19:59;;;;;;;81.47;58.20;;;22.40;65.80;;;;;;4955186;28;89559;-71
2023/06/11 02:22:24;;;;;;;81.20;58.67;;;22.40;66.60;;;;;;4943268;28;89553;-70
2023/06/11 02:24:51;;;;;;;82.10;58.08;;;22.40;65.60;;;;;;4957135;28;89485;-72
2023/06/11 02:27:16;;;;;;;82.57;58.33;;;22.30;65.40;;;;;;4960726;28;89495;-72
2023/06/11 02:29:42;;;;;;;81.53;58.08;;;22.30;65.30;;;;;;4956154;28;89479;-73
2023/06/11 02:32:08;;;;;;;81.82;58.42;;;22.20;65.50;;;;;;4954417;28;90463;-72
2023/06/11 02:34:34;;;;;;;81.50;57.83;;;22.20;66.50;;;;;;4952835;28;88774;-72
2023/06/11 02:36:59;;;;;;;81.00;58.28;;;22.20;66.30;;;;;;4952548;28;89386;-72
2023/06/11 02:39:25;;;;;;;81.93;57.70;;;22.20;66.50;;;;;;4951297;28;89568;-70
2023/06/11 02:41:51;;;;;;;81.50;58.03;;;22.10;66.80;;;;;;4940765;28;91034;-72
2023/06/11 02:44:16;;;;;;;82.25;58.35;;;22.10;66.60;;;;;;4956699;28;93711;-72
2023/06/11 02:46:42;;;;;;;82.72;57.97;;;22.10;67.40;;;;;;4959288;28;90484;-72
2023/06/11 02:49:07;;;;;;;81.10;58.45;;;22.10;66.80;;;;;;4956670;28;91197;-73
2023/06/11 02:51:33;;;;;;;82.03;58.10;;;22.10;67.10;;;;;;4956742;28;90045;-71
2023/06/11 02:53:59;;;;;;;82.20;58.10;;;22.10;67.60;;;;;;4935836;28;90218;-72
2023/06/11 02:56:26;;;;;;;82.70;58.15;;;22.10;68.30;;;;;;4957498;28;90585;-73
2023/06/11 02:58:51;;;;;;;81.90;57.95;;;22.00;67.60;;;;;;4949602;28;89276;-72
2023/06/11 03:01:17;;;;;;;80.68;57.65;;;22.00;67.10;;;;;;4941637;28;90850;-74
2023/06/11 03:03:43;;;;;;;81.93;58.38;;;21.90;67.10;;;;;;4954767;28;89563;-72
2023/06/11 03:06:08;;;;;;;83.50;58.13;;;21.90;67.50;;;;;;4962346;28;91489;-71
2023/06/11 03:08:34;;;;;;;80.05;57.35;;;21.90;68.40;;;;;;4957246;28;90732;-72
2023/06/11 03:11:00;;;;;;;80.50;57.90;;;21.90;68.60;;;;;;4953608;28;90286;-72
2023/06/11 03:13:25;;;;;;;80.22;57.47;;;21.90;68.40;;;;;;4959641;28;90214;-73
2023/06/11 03:15:51;;;;;;;80.70;57.67;;;21.90;68.60;;;;;;4944803;28;90444;-72
2023/06/11 03:18:17;;;;;;;79.93;57.30;;;21.90;68.40;;;;;;4953914;28;90517;-72
2023/06/11 03:20:43;;;;;;;80.35;57.72;;;21.80;68.60;;;;;;4957670;28;91520;-72
2023/06/11 03:23:10;;;;;;;79.63;57.38;;;21.80;68.70;;;;;;4962395;28;89123;-71
2023/06/11 03:25:36;;;;;;;81.50;58.22;;;21.80;68.20;;;;;;4943369;28;91201;-72
2023/06/11 03:28:02;;;;;;;80.47;57.40;;;21.80;69.60;;;;;;4959644;28;93323;-72
2023/06/11 03:30:28;;;;;;;82.30;58.28;;;21.80;69.70;;;;;;4953369;28;90679;-73
2023/06/11 03:32:53;;;;;;;80.05;57.72;;;21.80;68.10;;;;;;4960654;28;89510;-71
2023/06/11 03:35:19;;;;;;;80.78;57.65;;;21.80;69.70;;;;;;4958657;28;90392;-73
2023/06/11 03:37:45;;;;;;;80.63;57.92;;;21.70;68.70;;;;;;4954799;28;89605;-72
2023/06/11 03:40:11;;;;;;;81.55;57.83;;;21.70;70.60;;;;;;4955614;28;89528;-72
2023/06/11 03:42:37;;;;;;;80.85;57.95;;;21.70;69.60;;;;;;4955298;28;90287;-73
2023/06/11 03:45:02;;;;;;;80.90;57.92;;;21.70;68.40;;;;;;4958385;28;89681;-73
2023/06/11 03:47:28;;;;;;;80.30;57.50;;;21.70;69.30;;;;;;4957763;28;89793;-72
2023/06/11 03:49:54;;;;;;;80.07;57.22;;;21.70;69.70;;;;;;4949501;28;91069;-72
2023/06/11 03:52:19;;;;;;;79.35;57.40;;;21.70;69.90;;;;;;4956639;28;89567;-73
2023/06/11 03:54:45;;;;;;;83.03;58.60;;;21.70;69.90;;;;;;4952354;28;92181;-73
2023/06/11 03:57:12;;;;;;;80.50;57.67;;;21.60;70.00;;;;;;4952984;28;91274;-70
2023/06/11 03:59:38;;;;;;;80.80;58.05;;;21.60;69.90;;;;;;4954118;28;91296;-72
2023/06/11 04:02:04;;;;;;;79.28;57.13;;;21.60;69.30;;;;;;4957298;28;89400;-73
2023/06/11 04:04:31;;;;;;;80.50;57.92;;;21.60;68.90;;;;;;4956258;28;90054;-72
2023/06/11 04:06:57;;;;;;;81.53;57.85;;;21.50;69.60;;;;;;4956781;28;89934;-72
2023/06/11 04:09:23;;;;;;;82.10;57.85;;;21.60;69.10;;;;;;4954805;28;89683;-73
2023/06/11 04:11:48;;;;;;;79.57;57.08;;;21.60;68.70;;;;;;4956438;28;89468;-70
2023/06/11 04:14:14;;;;;;;80.22;57.20;;;21.60;68.70;;;;;;4957441;28;90115;-72
2023/06/11 04:16:40;;;;;;;79.53;57.72;;;21.60;68.80;;;;;;4954396;28;90208;-72
2023/06/11 04:19:05;;;;;;;80.90;57.70;;;21.60;68.60;;;;;;4950975;28;90370;-72
2023/06/11 04:21:31;;;;;;;80.03;57.45;;;21.60;68.30;;;;;;4958930;28;90315;-72
2023/06/11 04:23:56;;;;;;;80.32;58.13;;;21.60;68.50;;;;;;4944386;28;89749;-72
2023/06/11 04:26:23;;;;;;;81.07;58.08;;;21.70;69.60;;;;;;4955094;28;89436;-73
2023/06/11 04:28:50;;;;;;;79.55;57.47;;;21.60;68.30;;;;;;4957594;28;92220;-73
2023/06/11 04:31:16;;;;;;;81.03;57.53;;;21.70;69.00;;;;;;4960481;28;91216;-73
2023/06/11 04:33:41;;;;;;;81.78;58.00;;;21.70;68.90;;;;;;4952830;28;89963;-72
2023/06/11 04:36:08;;;;;;;80.05;57.50;;;21.70;69.50;;;;;;4959729;28;88771;-72
2023/06/11 04:38:36;;;;;;;82.18;57.92;;;21.80;68.50;;;;;;4953783;28;89769;-72
2023/06/11 04:41:05;;;;;;;81.35;57.40;;;21.80;68.70;;;;;;4939580;28;90725;-72
2023/06/11 04:43:33;;;;;;;79.40;57.50;;;21.80;69.10;;;;;;4939347;28;92210;-73
2023/06/11 04:46:00;;;;;;;80.35;57.65;;;21.80;68.70;;;;;;4955219;28;90610;-72
2023/06/11 04:48:31;;;;;;;80.47;57.78;;;21.90;68.40;;;;;;4952932;28;89981;-72
2023/06/11 04:50:59;;;;;;;80.38;57.63;;;21.90;68.60;;;;;;4956503;28;89943;-72
2023/06/11 04:53:27;;;;;;;80.15;57.72;;;21.90;69.30;;;;;;4956709;28;90058;-73
2023/06/11 04:55:54;;;;;;;80.10;57.90;;;21.90;67.90;;;;;;4958802;28;90225;-71
2023/06/11 04:58:24;;;;;;;79.93;57.67;;;21.90;68.10;;;;;;4954142;28;90536;-72
2023/06/11 05:00:51;;;;;;;80.28;57.63;;;22.00;68.70;;;;;;4946549;28;89746;-72
2023/06/11 05:03:18;;;;;;;80.28;57.80;;;21.90;68.60;;;;;;4951429;28;91468;-70
2023/06/11 05:05:51;;;;;;;80.72;57.58;;;22.00;68.50;;;;;;4950281;28;90300;-73
2023/06/11 05:08:18;;;;;;;80.15;57.25;;;22.00;68.60;;;;;;4959691;28;90900;-72
2023/06/11 05:10:44;;;;;;;79.85;57.15;;;22.00;68.00;;;;;;4954396;28;91248;-74
2023/06/11 05:13:11;;;;;;;80.95;57.63;;;22.00;69.10;;;;;;4954559;28;90018;-73
2023/06/11 05:15:37;;;;;;;80.55;57.90;;;22.10;69.10;;;;;;4952208;28;90521;-72
2023/06/11 05:18:02;;;;;;;80.38;57.67;;;22.10;69.00;;;;;;4958723;28;90322;-72
2023/06/11 05:20:28;;;;;;;81.97;57.55;;;22.10;69.40;;;;;;4955143;28;89678;-72
2023/06/11 05:22:58;;;;;;;80.97;58.15;;;22.20;69.30;;;;;;4943502;28;91183;-72
2023/06/11 05:25:28;;;;;;;80.30;57.45;;;22.20;69.90;;;;;;4952669;28;90318;-73
2023/06/11 05:27:55;;;;;;;82.13;58.53;;;22.20;69.30;;;;;;4955171;28;89550;-72
2023/06/11 05:30:25;;;;;;;80.35;57.45;;;22.30;70.30;;;;;;4942022;28;90613;-72
2023/06/11 05:32:56;;;;;;;81.05;57.42;;;22.30;69.60;;;;;;4956925;28;90994;-72
2023/06/11 05:35:24;;;;;;;80.13;57.75;;;22.30;69.30;;;;;;4950876;28;89950;-70
2023/06/11 05:37:50;;;;;;;80.30;57.45;;;22.30;69.40;;;;;;4937647;28;89526;-72
2023/06/11 05:40:16;;;;;;;80.63;57.05;;;22.40;69.10;;;;;;4956656;28;89847;-72
2023/06/11 05:42:42;;;;;;;81.07;57.58;;;22.40;69.40;;;;;;4955119;28;90046;-73
2023/06/11 05:45:08;;;;;;;81.40;57.80;;;22.40;70.00;;;;;;4955905;28;90064;-72
2023/06/11 05:47:34;;;;;;;80.93;57.75;;;22.40;69.40;;;;;;4946879;28;90904;-71
2023/06/11 05:50:00;;;;;;;81.68;57.75;;;22.50;70.10;;;;;;4957765;28;88905;-72
2023/06/11 05:52:26;;;;;;;80.20;57.83;;;22.50;69.30;;;;;;4959212;28;89776;-72
2023/06/11 05:54:52;;;;;;;80.50;57.63;;;22.60;69.80;;;;;;4953771;28;90078;-73
2023/06/11 05:57:20;;;;;;;80.13;57.65;;;22.60;69.20;;;;;;4941064;28;90488;-72
2023/06/11 05:59:46;;;;;;;81.60;57.58;;;22.60;69.00;;;;;;4951876;28;90139;-72
2023/06/11 06:02:12;;;;;;;80.80;57.63;;;22.70;69.40;;;;;;4951906;28;89933;-73
2023/06/11 06:04:37;;;;;;;83.07;57.72;;;22.70;69.60;;;;;;4960142;28;90281;-71
2023/06/11 06:07:03;;;;;;;81.22;57.97;;;22.70;69.60;;;;;;4954060;28;91320;-71
2023/06/11 06:09:29;;;;;;;82.43;57.25;;;22.80;69.30;;;;;;4960097;28;89644;-72
2023/06/11 06:11:55;;;;;;;80.80;57.65;;;22.80;69.60;;;;;;4953561;28;90158;-72
2023/06/11 06:14:20;;;;;;;81.95;58.22;;;22.80;69.10;;;;;;4949454;28;90864;-73
2023/06/11 06:16:46;;;;;;;81.90;57.80;;;22.90;68.50;;;;;;4960762;28;89728;-73
2023/06/11 06:19:12;;;;;;;81.70;58.08;;;22.90;69.10;;;;;;4951194;28;89768;-69
2023/06/11 06:21:38;;;;;;;81.30;57.70;;;22.90;69.00;;;;;;4935982;28;91953;-70
2023/06/11 06:24:04;;;;;;;81.70;58.33;;;23.00;69.00;;;;;;4956415;28;89934;-70
2023/06/11 06:26:30;;;;;;;81.55;57.78;;;23.00;68.60;;;;;;4952094;28;89699;-72
2023/06/11 06:28:56;;;;;;;81.25;57.80;;;23.00;68.80;;;;;;4960195;28;89639;-71
2023/06/11 06:31:24;;;;;;;82.05;58.25;;;23.10;68.80;;;;;;4936118;28;92575;-72
2023/06/11 06:33:50;;;;;;;82.05;57.90;;;23.10;68.90;;;;;;4955083;28;92412;-72
2023/06/11 06:36:19;;;;;;;84.32;57.70;;;23.10;68.80;;;;;;4959834;28;90459;-72
2023/06/11 06:38:45;;;;;;;82.57;57.70;;;23.20;68.70;;;;;;4957975;28;88972;-73
2023/06/11 06:41:11;;;;;;;81.38;58.05;;;23.20;68.90;;;;;;4961603;28;89994;-70
2023/06/11 06:43:37;;;;;;;82.78;58.28;;;23.20;68.10;;;;;;4939864;28;91040;-73
2023/06/11 06:46:03;;;;;;;82.07;58.08;;;23.30;68.20;;;;;;4958111;28;91658;-71
2023/06/11 06:48:28;;;;;;;84.43;58.05;;;23.30;68.30;;;;;;4959318;28;91724;-73
2023/06/11 06:50:54;;;;;;;81.95;58.42;;;23.30;68.10;;;;;;4958115;28;90005;-73
2023/06/11 06:53:20;;;;;;;81.50;58.10;;;23.40;68.30;;;;;;4940534;28;91757;-70
2023/06/11 06:55:45;;;;;;;82.38;58.15;;;23.40;68.40;;;;;;4957142;28;92039;-72
2023/06/11 06:58:11;;;;;;;81.47;57.65;;;23.50;67.30;;;;;;4958153;28;90054;-71
2023/06/11 07:00:37;;;;;;;83.50;58.35;;;23.50;67.50;;;;;;4959922;28;90598;-72
2023/06/11 07:03:03;;;;;;;82.65;58.25;;;23.50;66.90;;;;;;4957828;28;89535;-72
2023/06/11 07:05:28;;;;;;;81.93;57.80;;;23.60;66.80;;;;;;4956435;28;89606;-71
2023/06/11 07:07:54;;;;;;;82.47;58.17;;;23.60;66.50;;;;;;4942708;28;92385;-73
2023/06/11 07:10:20;;;;;;;82.07;58.42;;;23.70;66.00;;;;;;4934820;28;91868;-72
2023/06/11 07:12:46;;;;;;;84.70;58.75;;;23.70;66.30;;;;;;4957416;28;90952;-73
2023/06/11 07:15:11;;;;;;;82.70;58.72;;;23.70;65.90;;;;;;4954427;28;89782;-70
2023/06/11 07:17:37;;;;;;;82.47;58.15;;;23.80;66.00;;;;;;4957928;28;92035;-73
2023/06/11 07:20:07;;;;;;;82.75;57.95;;;23.80;65.20;;;;;;4953813;28;89692;-73
2023/06/11 07:22:33;;;;;;;82.45;58.47;;;23.80;65.30;;;;;;4960233;28;89582;-71
2023/06/11 07:25:00;;;;;;;85.03;58.72;;;23.90;64.80;;;;;;4958285;28;91866;-73
2023/06/11 07:27:26;;;;;;;84.32;58.53;;;23.90;64.30;;;;;;4940024;28;88962;-71
2023/06/11 07:29:52;;;;;;;83.20;58.65;;;23.90;64.00;;;;;;4952362;28;90789;-73
2023/06/11 07:32:18;;;;;;;82.78;58.05;;;23.90;63.80;;;;;;4952755;28;89541;-72
2023/06/11 07:34:43;;;;;;;82.90;58.70;;;24.00;63.50;;;;;;4949462;28;91479;-71
2023/06/11 07:37:09;;;;;;;83.50;58.45;;;24.00;63.10;;;;;;4941368;28;89594;-73
2023/06/11 07:39:35;;;;;;;82.97;58.42;;;24.10;62.90;;;;;;4948169;28;89926;-73
2023/06/11 07:42:01;;;;;;;83.03;58.65;;;24.10;62.40;;;;;;4946809;28;90357;-72
2023/06/11 07:44:27;;;;;;;84.55;59.05;;;24.10;62.50;;;;;;4954492;28;90657;-73
2023/06/11 07:46:52;;;;;;;84.90;58.90;;;24.20;62.20;;;;;;4956555;28;89910;-73
2023/06/11 07:49:18;;;;;;;85.00;58.95;;;24.20;62.10;;;;;;4940685;28;90650;-71
2023/06/11 07:51:46;;;;;;;85.70;58.80;;;24.20;61.70;;;;;;4954009;28;91042;-72
2023/06/11 07:54:11;;;;;;;84.25;59.15;;;24.20;61.30;;;;;;4958877;28;89754;-72
2023/06/11 07:56:37;;;;;;;85.80;59.33;;;24.30;61.10;;;;;;4958138;28;89931;-74
2023/06/11 07:59:03;;;;;;;84.55;59.45;;;24.30;60.80;;;;;;4956961;28;90935;-72
2023/06/11 08:01:29;;;;;;;84.20;59.35;;;24.40;60.80;;;;;;4938261;28;89892;-73
2023/06/11 08:03:54;;;;;;;85.85;59.63;;;24.40;60.60;;;;;;4953204;28;90350;-73
2023/06/11 08:06:20;;;;;;;86.88;59.13;;;24.40;60.30;;;;;;4956931;28;91644;-72
2023/06/11 08:08:47;;;;;;;83.75;58.13;;;24.50;60.30;;;;;;4948718;28;90625;-73
2023/06/11 08:11:13;;;;;;;85.03;59.03;;;24.50;59.90;;;;;;4959123;28;90008;-73
2023/06/11 08:13:40;;;;;;;83.13;58.42;;;24.50;60.00;;;;;;4957331;28;89903;-74
2023/06/11 08:16:09;;;;;;;84.47;59.35;;;24.50;60.30;;;;;;4957415;28;94815;-74
2023/06/11 08:18:35;;;;;;;85.15;59.03;;;24.60;60.00;;;;;;4950170;28;90125;-73
2023/06/11 08:21:00;;;;;;;85.20;59.20;;;24.60;59.60;;;;;;4957360;28;90171;-74
2023/06/11 08:23:27;;;;;;;84.70;59.22;;;24.70;59.50;;;;;;4956963;28;90937;-73
2023/06/11 08:25:52;;;;;;;85.22;58.97;;;24.70;59.30;;;;;;4958716;28;89468;-71
2023/06/11 08:28:20;;;;;;;85.60;59.38;;;24.70;59.30;;;;;;4947451;28;90335;-71
2023/06/11 08:30:45;;;;;;;84.72;58.55;;;24.80;59.30;;;;;;4957582;28;89899;-74
2023/06/11 08:33:12;;;;;;;86.85;59.17;;;24.80;59.40;;;;;;4950588;28;90358;-73
2023/06/11 08:35:37;;;;;;;85.72;58.78;;;24.80;59.20;;;;;;4929773;28;95159;-73
2023/06/11 08:38:03;;;;;;;84.25;58.67;;;24.80;60.30;;;;;;4944261;28;90238;-73
2023/06/11 08:40:29;;;;;;;83.90;58.92;;;24.80;59.80;;;;;;4949084;28;89542;-75
2023/06/11 08:42:55;;;;;;;83.68;59.22;;;24.90;58.80;;;;;;4958842;28;90562;-73
2023/06/11 08:45:21;;;;;;;86.20;59.25;;;24.90;58.50;;;;;;4931670;28;94977;-75
2023/06/11 08:47:52;;;;;;;87.05;59.05;;;25.00;58.60;;;;;;4949267;28;91494;-74
2023/06/11 08:50:24;;;;;;;84.70;59.03;;;25.00;58.10;;;;;;4948659;28;90402;-73
2023/06/11 08:52:53;;;;;;;86.05;59.55;;;25.00;58.20;;;;;;4948510;28;89545;-73
2023/06/11 08:55:19;;;;;;;84.78;58.67;;;25.00;57.90;;;;;;4952343;28;89798;-72
2023/06/11 08:57:46;;;;;;;85.72;59.22;;;25.10;58.10;;;;;;4948041;28;90226;-73
2023/06/11 09:00:13;;;;;;;86.20;59.42;;;25.10;58.10;;;;;;4949793;28;90752;-72
2023/06/11 09:02:39;;;;;;;86.03;58.60;;;25.20;58.30;;;;;;4941753;28;90468;-71
2023/06/11 09:05:04;;;;;;;84.28;58.78;;;25.20;58.40;;;;;;4945164;28;88670;-73
2023/06/11 09:07:30;;;;;;;84.05;58.90;;;25.20;58.20;;;;;;4952900;28;90532;-72
2023/06/11 09:10:09;;;;;;;84.15;59.03;;;25.20;58.30;;;;;;4950951;28;91418;-73
2023/06/11 09:12:35;;;;;;;85.60;58.75;;;25.30;58.30;;;;;;4959852;28;91073;-75
2023/06/11 09:15:05;;;;;;;86.80;59.22;;;25.30;58.10;;;;;;4941309;28;90303;-71
2023/06/11 09:17:35;;;;;;;86.30;59.03;;;25.30;58.10;;;;;;4927165;28;90160;-74
2023/06/11 09:20:04;;;;;;;86.33;59.00;;;25.30;58.40;;;;;;4932212;28;93697;-72
2023/06/11 09:22:30;;;;;;;84.93;58.92;;;25.40;58.80;;;;;;4959037;28;91230;-69
2023/06/11 09:24:56;;;;;;;87.93;59.25;;;25.40;58.70;;;;;;4940655;28;89885;-74
2023/06/11 09:27:22;;;;;;;86.68;59.45;;;25.40;59.30;;;;;;4948091;28;90314;-74
2023/06/11 09:29:47;;;;;;;85.00;59.10;;;25.50;59.60;;;;;;4945420;28;90320;-74
2023/06/11 09:32:13;;;;;;;85.70;59.35;;;25.50;59.50;;;;;;4945305;28;91677;-73
2023/06/11 09:34:40;;;;;;;87.07;59.38;;;25.50;60.30;;;;;;4938927;28;90630;-73
2023/06/11 09:37:10;;;;;;;86.78;59.00;;;25.60;61.80;;;;;;4939743;28;96351;-72
2023/06/11 09:39:36;;;;;;;95.28;59.65;;;25.60;62.90;;;;;;4927064;28;91226;-74
2023/06/11 09:42:02;;;;;;;88.85;59.22;;;25.60;65.30;;;;;;4948652;28;89944;-72
2023/06/11 09:44:31;;;;;;;89.35;59.58;;;25.70;66.10;;;;;;4946415;28;89599;-74
2023/06/11 09:46:58;;;;;;;89.40;59.30;;;25.70;65.30;;;;;;4945721;28;89942;-74
2023/06/11 09:49:24;;;;;;;86.32;59.70;;;25.70;64.80;;;;;;4948321;28;95402;-74
2023/06/11 09:51:52;;;;;;;88.10;59.78;;;25.80;64.10;;;;;;4937631;28;90127;-73
2023/06/11 09:54:20;;;;;;;88.85;59.20;;;25.80;64.10;;;;;;4930921;28;90508;-73
2023/06/11 09:56:47;;;;;;;87.63;59.25;;;25.80;64.10;;;;;;4954303;28;89317;-73
2023/06/11 09:59:16;;;;;;;89.60;58.63;;;25.80;64.20;;;;;;4926877;28;90884;-73
2023/06/11 10:01:47;;;;;;;85.50;59.30;;;25.80;64.20;;;;;;4947718;28;90025;-73
2023/06/11 10:04:12;;;;;;;90.38;58.67;;;25.90;64.40;;;;;;4949162;28;90311;-74
2023/06/11 10:06:45;;;;;;;86.82;58.95;;;25.80;64.80;;;;;;4948504;28;90020;-74
2023/06/11 10:09:13;;;;;;;87.50;58.83;;;25.90;65.00;;;;;;4945775;28;89337;-75
2023/06/11 10:11:40;;;;;;;84.47;58.65;;;25.90;64.70;;;;;;4948112;28;90471;-75
2023/06/11 10:14:11;;;;;;;92.45;59.25;;;26.00;64.90;;;;;;4956314;28;89336;-75
2023/06/11 10:16:37;;;;;;;86.47;59.28;;;26.00;65.30;;;;;;4954159;28;90681;-74
2023/06/11 10:19:14;;;;;;;85.03;58.70;;;26.00;64.80;;;;;;4950250;28;88999;-75
2023/06/11 10:21:51;;;;;;;87.32;58.72;;;26.00;64.80;;;;;;4951315;28;89609;-75
2023/06/11 10:24:27;;;;;;;87.30;59.10;;;26.10;65.40;;;;;;4952410;28;90442;-74
2023/06/11 10:27:08;;;;;;;87.07;58.75;;;26.10;65.40;;;;;;4952456;28;90602;-74
2023/06/11 10:29:38;;;;;;;86.35;59.15;;;26.10;64.60;;;;;;4941489;28;90742;-75
2023/06/11 10:32:13;;;;;;;86.95;59.15;;;26.20;64.50;;;;;;4951785;28;90073;-75
2023/06/11 10:34:40;;;;;;;87.88;59.30;;;26.20;62.60;;;;;;4924157;28;89592;-73
2023/06/11 10:37:07;;;;;;;85.25;58.92;;;26.20;61.40;;;;;;4940737;28;90111;-74
2023/06/11 10:39:32;;;;;;;85.78;59.08;;;26.30;60.10;;;;;;4944212;28;89331;-74
2023/06/11 10:42:00;;;;;;;85.80;59.03;;;26.20;58.60;;;;;;4946314;28;89719;-74
2023/06/11 10:44:26;;;;;;;86.95;59.30;;;26.20;58.20;;;;;;4950316;28;89186;-73
2023/06/11 10:46:53;;;;;;;89.00;59.55;;;26.20;56.80;;;;;;4928657;28;91210;-73
2023/06/11 10:49:28;;;;;;;86.38;58.65;;;26.10;55.90;;;;;;4939851;28;90120;-73
2023/06/11 10:51:54;;;;;;;89.68;58.83;;;26.10;54.70;;;;;;4942147;28;90545;-73
2023/06/11 10:54:28;;;;;;;85.13;58.40;;;26.00;53.50;;;;;;4942810;23;91581;-46
2023/06/11 10:56:54;;;;;;;85.40;58.17;;;26.00;52.60;;;;;;4938497;28;91829;-45
2023/06/11 10:59:23;;;;;;;87.18;58.05;;;26.00;51.60;;;;;;4947095;28;91854;-51
2023/06/11 11:01:52;;;;;;;88.97;58.22;;;26.00;50.40;;;;;;4934469;28;92627;-45
2023/06/11 11:04:18;;;;;;;85.82;58.55;;;26.00;49.90;;;;;;4943931;28;89844;-46
2023/06/11 11:06:44;;;;;;;86.32;58.63;;;26.00;49.40;;;;;;4947645;28;90616;-48
2023/06/11 11:09:09;;;;;;;86.72;58.08;;;26.00;49.00;;;;;;4939070;28;90506;-49
2023/06/11 11:11:38;;;;;;;86.00;58.47;;;26.00;48.70;;;;;;4946470;28;92620;-49
2023/06/11 11:14:04;;;;;;;85.15;58.08;;;26.00;48.50;;;;;;4948187;28;89680;-46
2023/06/11 11:16:30;;;;;;;86.20;57.67;;;26.00;48.40;;;;;;4929239;28;91719;-45
2023/06/11 11:18:56;;;;;;;89.30;58.65;;;26.00;48.30;;;;;;4938182;28;90740;-48
2023/06/11 11:21:28;;;;;;;92.32;58.47;;;26.00;48.00;;;;;;4945331;28;89517;-44
2023/06/11 11:23:55;;;;;;;85.68;58.17;;;26.00;47.80;;;;;;4943056;28;94978;-44
2023/06/11 11:26:21;;;;;;;84.15;58.13;;;26.00;47.60;;;;;;4945934;28;91376;-46
2023/06/11 11:28:47;;;;;;;85.15;57.97;;;26.00;47.30;;;;;;4952726;28;90314;-47
2023/06/11 11:31:20;;;;;;;84.28;58.20;;;26.00;47.10;;;;;;4953535;28;92537;-49
2023/06/11 11:33:47;;;;;;;84.57;57.88;;;26.00;47.00;;;;;;4943910;28;94437;-45
2023/06/11 11:36:13;;;;;;;87.90;57.85;;;26.00;48.00;;;;;;4948010;28;91718;-46
2023/06/11 11:38:38;;;;;;;86.22;58.22;;;26.00;47.20;;;;;;4944875;28;90353;-47
2023/06/11 11:41:10;;;;;;;86.15;58.38;;;26.10;47.10;;;;;;4947954;28;90694;-48
2023/06/11 11:43:40;;;;;;;90.97;57.85;;;26.10;47.10;;;;;;4945592;28;90157;-48
2023/06/11 11:46:16;;;;;;;84.93;58.17;;;26.20;47.00;;;;;;4952324;28;89582;-46
2023/06/11 11:48:42;;;;;;;84.78;57.78;;;26.20;46.60;;;;;;4949089;28;91544;-45
2023/06/11 11:51:08;;;;;;;86.80;58.05;;;26.20;46.50;;;;;;4951968;28;91623;-46
2023/06/11 11:53:35;;;;;;;85.78;57.72;;;26.30;46.40;;;;;;4938685;28;94566;-46
2023/06/11 11:56:04;;;;;;;85.00;58.22;;;26.40;46.70;;;;;;4952498;28;90409;-47
2023/06/11 11:58:38;;;;;;;87.75;57.67;;;26.40;46.70;;;;;;4947577;28;91346;-46
2023/06/11 12:01:08;;;;;;;84.40;57.88;;;26.40;46.80;;;;;;4948718;28;89905;-45
2023/06/11 12:03:34;;;;;;;89.40;57.88;;;26.50;47.00;;;;;;4945973;28;89590;-47
2023/06/11 12:06:07;;;;;;;86.88;58.22;;;26.50;47.10;;;;;;4944882;28;90751;-47
2023/06/11 12:08:35;;;;;;;86.88;58.38;;;26.60;47.10;;;;;;4947428;28;90830;-46
2023/06/11 12:11:03;;;;;;;85.28;58.20;;;26.60;47.10;;;;;;4946822;28;90482;-46
2023/06/11 12:13:29;;;;;;;85.63;58.22;;;26.60;47.10;;;;;;4953299;28;89843;-46
2023/06/11 12:15:55;;;;;;;86.40;58.25;;;26.60;47.20;;;;;;4946574;28;94649;-51
2023/06/11 12:18:21;;;;;;;85.72;58.38;;;26.60;47.00;;;;;;4946700;28;90162;-53
2023/06/11 12:20:46;;;;;;;87.10;58.13;;;26.60;47.10;;;;;;4948587;28;89968;-50
2023/06/11 12:23:12;;;;;;;86.40;58.13;;;26.60;47.20;;;;;;4949632;28;88914;-50
2023/06/11 12:25:39;;;;;;;86.03;58.25;;;26.60;47.70;;;;;;4946508;28;91688;-49
2023/06/11 12:28:05;;;;;;;85.60;58.50;;;26.70;48.30;;;;;;4951175;28;93306;-47